createdAt,value
2018-09-08T00:02:07.895Z,11.00
2018-09-08T00:04:37.217Z,11.00
2018-09-08T00:07:12.077Z,11.00
2018-09-08T00:09:41.838Z,10.90
2018-09-08T00:12:11.473Z,10.90
2018-09-08T00:14:40.070Z,10.90
2018-09-08T00:17:14.770Z,10.90
2018-09-08T00:19:49.070Z,10.90
2018-09-08T00:22:23.525Z,10.90
2018-09-08T00:24:58.514Z,10.90
2018-09-08T00:27:35.033Z,10.90
2018-09-08T00:30:09.365Z,10.90
2018-09-08T00:32:40.022Z,10.80
2018-09-08T00:35:09.717Z,10.80
2018-09-08T00:37:38.997Z,10.80
2018-09-08T00:40:08.419Z,10.80
2018-09-08T00:42:37.649Z,10.80
2018-09-08T00:45:07.311Z,10.80
2018-09-08T00:47:36.678Z,10.70
2018-09-08T00:50:06.199Z,10.70
2018-09-08T00:52:35.634Z,10.70
2018-09-08T00:55:05.038Z,10.70
2018-09-08T00:57:34.219Z,10.70
2018-09-08T01:00:03.429Z,10.70
2018-09-08T01:02:32.441Z,10.60
2018-09-08T01:05:01.924Z,10.60
2018-09-08T01:07:31.812Z,10.60
2018-09-08T01:10:02.345Z,10.60
2018-09-08T01:12:32.176Z,10.60
2018-09-08T01:15:01.939Z,10.60
2018-09-08T01:17:31.279Z,10.60
2018-09-08T01:20:00.664Z,10.60
2018-09-08T01:22:30.127Z,10.60
2018-09-08T01:25:00.441Z,10.70
2018-09-08T01:27:29.958Z,10.90
2018-09-08T01:29:59.344Z,10.90
2018-09-08T01:32:28.675Z,11.00
2018-09-08T01:34:58.111Z,10.90
2018-09-08T01:37:27.659Z,10.90
2018-09-08T01:39:57.020Z,10.90
2018-09-08T01:42:26.472Z,10.90
2018-09-08T01:44:56.243Z,10.90
2018-09-08T01:47:25.679Z,10.90
2018-09-08T01:49:55.147Z,10.90
2018-09-08T01:52:24.343Z,10.90
2018-09-08T01:54:53.431Z,11.00
2018-09-08T01:57:22.583Z,11.00
2018-09-08T01:59:51.799Z,11.00
2018-09-08T02:02:20.971Z,11.10
2018-09-08T02:04:50.066Z,11.10
2018-09-08T02:07:19.315Z,11.20
2018-09-08T02:09:48.616Z,11.30
2018-09-08T02:12:18.076Z,11.30
2018-09-08T02:14:47.376Z,11.30
2018-09-08T02:17:16.828Z,11.30
2018-09-08T02:19:46.180Z,11.20
2018-09-08T02:22:15.547Z,11.20
2018-09-08T02:24:44.977Z,11.20
2018-09-08T02:27:14.295Z,11.10
2018-09-08T02:29:43.418Z,11.10
2018-09-08T02:32:12.696Z,11.00
2018-09-08T02:34:42.160Z,11.00
2018-09-08T02:37:11.490Z,11.00
2018-09-08T02:39:40.980Z,11.00
2018-09-08T02:42:10.197Z,10.90
2018-09-08T02:44:39.490Z,10.90
2018-09-08T02:47:09.053Z,10.90
2018-09-08T02:49:49.548Z,10.90
2018-09-08T02:52:17.495Z,10.90
2018-09-08T02:54:45.379Z,10.90
2018-09-08T02:57:13.241Z,10.90
2018-09-08T02:59:41.325Z,10.80
2018-09-08T03:02:09.679Z,10.80
2018-09-08T03:04:37.659Z,10.70
2018-09-08T03:07:10.724Z,10.70
2018-09-08T03:09:38.729Z,10.60
2018-09-08T03:12:07.058Z,10.70
2018-09-08T03:14:34.940Z,10.60
2018-09-08T03:17:02.779Z,10.60
2018-09-08T03:19:30.816Z,10.60
2018-09-08T03:21:59.025Z,10.60
2018-09-08T03:24:27.353Z,10.60
2018-09-08T03:26:55.197Z,10.60
2018-09-08T03:29:23.068Z,10.60
2018-09-08T03:31:50.944Z,10.50
2018-09-08T03:34:18.871Z,10.50
2018-09-08T03:36:46.879Z,10.50
2018-09-08T03:39:14.925Z,10.50
2018-09-08T03:41:42.777Z,10.50
2018-09-08T03:44:10.877Z,10.50
2018-09-08T03:46:38.816Z,10.50
2018-09-08T03:49:06.707Z,10.50
2018-09-08T03:51:34.953Z,10.50
2018-09-08T03:54:02.970Z,10.50
2018-09-08T03:56:30.808Z,10.40
2018-09-08T03:58:59.069Z,10.40
2018-09-08T04:01:26.961Z,10.40
2018-09-08T04:03:56.180Z,10.40
2018-09-08T04:06:26.337Z,10.40
2018-09-08T04:08:56.039Z,10.40
2018-09-08T04:11:25.468Z,10.40
2018-09-08T04:13:55.153Z,10.40
2018-09-08T04:16:24.476Z,10.40
2018-09-08T04:18:53.710Z,10.80
2018-09-08T04:21:22.855Z,10.40
2018-09-08T04:23:52.416Z,10.40
2018-09-08T04:26:22.167Z,10.40
2018-09-08T04:28:51.675Z,10.40
2018-09-08T04:31:20.976Z,10.40
2018-09-08T04:33:50.100Z,10.40
2018-09-08T04:36:19.357Z,10.50
2018-09-08T04:38:49.145Z,10.40
2018-09-08T04:41:18.664Z,10.40
2018-09-08T04:43:47.963Z,10.40
2018-09-08T04:46:17.264Z,10.50
2018-09-08T04:48:46.787Z,10.40
2018-09-08T04:51:16.348Z,10.40
2018-09-08T04:53:45.564Z,10.40
2018-09-08T04:56:15.192Z,10.40
2018-09-08T04:58:44.399Z,10.40
2018-09-08T05:01:13.537Z,10.40
2018-09-08T05:03:42.888Z,10.40
2018-09-08T05:06:12.036Z,10.40
2018-09-08T05:08:41.319Z,10.40
2018-09-08T05:11:10.649Z,10.50
2018-09-08T05:13:40.144Z,10.50
2018-09-08T05:16:09.493Z,10.50
2018-09-08T05:18:38.889Z,10.50
2018-09-08T05:21:08.133Z,10.60
2018-09-08T05:23:37.339Z,10.60
2018-09-08T05:26:06.690Z,10.70
2018-09-08T05:28:36.278Z,10.60
2018-09-08T05:31:05.609Z,10.70
2018-09-08T05:33:34.922Z,10.70
2018-09-08T05:36:04.077Z,10.80
2018-09-08T05:38:33.396Z,10.90
2018-09-08T05:41:02.522Z,10.90
2018-09-08T05:43:31.692Z,11.00
2018-09-08T05:46:01.090Z,11.00
2018-09-08T05:48:30.696Z,11.10
2018-09-08T05:51:00.020Z,11.50
2018-09-08T05:53:29.308Z,12.30
2018-09-08T05:55:58.610Z,13.20
2018-09-08T05:58:29.004Z,14.30
2018-09-08T06:00:58.100Z,15.20
2018-09-08T06:03:27.300Z,16.00
2018-09-08T06:05:56.712Z,16.70
2018-09-08T06:08:25.907Z,17.50
2018-09-08T06:10:55.120Z,17.80
2018-09-08T06:13:24.506Z,18.50
2018-09-08T06:15:53.638Z,18.40
2018-09-08T06:18:22.835Z,19.00
2018-09-08T06:20:52.299Z,19.30
2018-09-08T06:23:21.567Z,19.70
2018-09-08T06:25:50.671Z,19.30
2018-09-08T06:28:19.926Z,18.20
2018-09-08T06:30:49.231Z,17.30
2018-09-08T06:33:18.524Z,16.60
2018-09-08T06:35:47.660Z,15.70
2018-09-08T06:38:17.024Z,15.60
2018-09-08T06:40:46.208Z,16.10
2018-09-08T06:43:15.399Z,17.10
2018-09-08T06:45:44.663Z,18.30
2018-09-08T06:48:13.919Z,18.70
2018-09-08T06:50:43.314Z,19.90
2018-09-08T06:53:12.797Z,20.70
2018-09-08T06:55:42.196Z,21.50
2018-09-08T06:58:11.512Z,21.70
2018-09-08T07:00:40.888Z,21.70
2018-09-08T07:03:10.438Z,23.10
2018-09-08T07:05:39.877Z,23.80
2018-09-08T07:08:09.408Z,24.30
2018-09-08T07:10:38.712Z,23.30
2018-09-08T07:13:08.381Z,23.90
2018-09-08T07:15:37.680Z,24.10
2018-09-08T07:18:07.115Z,24.50
2018-09-08T07:20:36.207Z,25.30
2018-09-08T07:23:06.508Z,24.30
2018-09-08T07:25:35.659Z,23.80
2018-09-08T07:28:05.219Z,24.20
2018-09-08T07:30:34.395Z,24.30
2018-09-08T07:33:03.736Z,24.00
2018-09-08T07:35:33.146Z,24.50
2018-09-08T07:38:02.274Z,24.50
2018-09-08T07:40:31.356Z,24.30
2018-09-08T07:43:01.275Z,24.20
2018-09-08T07:45:30.722Z,23.90
2018-09-08T07:48:00.264Z,22.60
2018-09-08T07:50:29.594Z,22.90
2018-09-08T07:52:58.775Z,22.80
2018-09-08T07:55:28.236Z,23.30
2018-09-08T07:57:58.421Z,23.00
2018-09-08T08:00:28.437Z,22.70
2018-09-08T08:02:58.046Z,22.80
2018-09-08T08:05:28.988Z,23.60
2018-09-08T08:07:58.569Z,24.10
2018-09-08T08:10:28.036Z,24.60
2018-09-08T08:12:57.882Z,24.30
2018-09-08T08:15:27.485Z,24.40
2018-09-08T08:17:56.862Z,24.30
2018-09-08T08:20:26.149Z,23.90
2018-09-08T08:22:55.317Z,24.00
2018-09-08T08:25:24.467Z,24.50
2018-09-08T08:27:53.691Z,25.20
2018-09-08T08:30:22.956Z,25.50
2018-09-08T08:32:52.796Z,25.10
2018-09-08T08:35:21.979Z,24.50
2018-09-08T08:37:51.234Z,23.50
2018-09-08T08:40:21.255Z,22.70
2018-09-08T08:42:50.459Z,21.90
2018-09-08T08:45:21.308Z,22.40
2018-09-08T08:47:50.866Z,22.10
2018-09-08T08:50:31.428Z,21.90
2018-09-08T08:53:11.949Z,22.60
2018-09-08T08:55:41.654Z,23.10
2018-09-08T08:58:11.258Z,23.40
2018-09-08T09:00:41.525Z,22.80
2018-09-08T09:03:11.122Z,22.00
2018-09-08T09:05:40.594Z,21.70
2018-09-08T09:08:09.976Z,22.10
2018-09-08T09:10:39.665Z,22.80
2018-09-08T09:13:09.220Z,23.00
2018-09-08T09:15:38.574Z,23.10
2018-09-08T09:18:07.947Z,22.80
2018-09-08T09:20:48.954Z,22.90
2018-09-08T09:24:28.287Z,23.10
2018-09-08T09:26:57.251Z,23.30
2018-09-08T09:29:27.091Z,23.80
2018-09-08T09:31:56.528Z,24.20
2018-09-08T09:34:26.234Z,24.50
2018-09-08T09:36:55.526Z,24.90
2018-09-08T09:39:25.091Z,25.20
2018-09-08T09:41:54.828Z,23.90
2018-09-08T09:44:24.552Z,23.30
2018-09-08T09:46:54.380Z,22.30
2018-09-08T09:49:23.792Z,22.10
2018-09-08T09:51:53.125Z,22.00
2018-09-08T09:54:22.897Z,22.60
2018-09-08T09:56:52.285Z,23.20
2018-09-08T09:59:21.720Z,24.30
2018-09-08T10:01:56.525Z,24.70
2018-09-08T10:04:26.266Z,24.80
2018-09-08T10:06:55.810Z,24.10
2018-09-08T10:09:25.202Z,24.40
2018-09-08T10:11:54.826Z,24.30
2018-09-08T10:14:24.285Z,24.50
2018-09-08T10:16:53.621Z,24.60
2018-09-08T10:19:23.170Z,24.80
2018-09-08T10:21:53.048Z,25.50
2018-09-08T10:24:22.389Z,25.20
2018-09-08T10:26:51.780Z,25.20
2018-09-08T10:29:21.125Z,26.10
2018-09-08T10:31:51.507Z,27.00
2018-09-08T10:34:20.496Z,26.70
2018-09-08T10:36:49.759Z,25.80
2018-09-08T10:39:19.111Z,26.00
2018-09-08T10:41:48.697Z,26.10
2018-09-08T10:44:18.074Z,25.80
2018-09-08T10:46:47.523Z,26.10
2018-09-08T10:49:17.016Z,26.30
2018-09-08T10:52:18.281Z,25.20
2018-09-08T10:54:47.960Z,23.50
2018-09-08T10:57:17.864Z,22.30
2018-09-08T10:59:46.920Z,22.50
2018-09-08T11:02:16.582Z,22.20
2018-09-08T11:04:45.531Z,22.50
2018-09-08T11:07:14.734Z,23.10
2018-09-08T11:09:44.355Z,23.30
2018-09-08T11:12:13.809Z,22.40
2018-09-08T11:14:43.171Z,22.00
2018-09-08T11:17:12.300Z,21.30
2018-09-08T11:19:42.689Z,21.40
2018-09-08T11:22:12.052Z,21.80
2018-09-08T11:24:41.350Z,21.20
2018-09-08T11:27:11.318Z,21.00
2018-09-08T11:29:40.968Z,21.90
2018-09-08T11:32:10.236Z,22.50
2018-09-08T11:34:39.520Z,22.40
2018-09-08T11:37:09.016Z,22.80
2018-09-08T11:39:38.521Z,22.60
2018-09-08T11:42:07.988Z,23.30
2018-09-08T11:44:37.437Z,22.90
2018-09-08T11:47:06.976Z,23.00
2018-09-08T11:49:36.424Z,22.90
2018-09-08T11:52:06.648Z,22.60
2018-09-08T11:54:36.492Z,21.90
2018-09-08T11:57:06.661Z,21.70
2018-09-08T11:59:36.522Z,21.50
2018-09-08T12:02:06.220Z,21.10
2018-09-08T12:04:35.918Z,20.80
2018-09-08T12:07:06.678Z,20.50
2018-09-08T12:09:36.116Z,20.90
2018-09-08T12:12:05.620Z,20.90
2018-09-08T12:14:35.074Z,21.30
2018-09-08T12:17:04.248Z,21.50
2018-09-08T12:19:33.596Z,21.70
2018-09-08T12:22:02.873Z,21.90
2018-09-08T12:24:32.552Z,22.40
2018-09-08T12:27:01.997Z,22.30
2018-09-08T12:29:31.465Z,22.40
2018-09-08T12:32:00.927Z,22.40
2018-09-08T12:34:30.932Z,22.50
2018-09-08T12:37:00.305Z,22.50
2018-09-08T12:39:29.486Z,22.40
2018-09-08T12:41:59.252Z,22.30
2018-09-08T12:44:28.816Z,22.10
2018-09-08T12:46:58.518Z,22.20
2018-09-08T12:49:28.079Z,22.50
2018-09-08T12:51:57.607Z,22.90
2018-09-08T12:54:27.098Z,23.10
2018-09-08T12:56:56.608Z,22.90
2018-09-08T12:59:26.083Z,22.90
2018-09-08T13:01:55.746Z,23.00
2018-09-08T13:04:25.382Z,23.20
2018-09-08T13:06:54.790Z,22.90
2018-09-08T13:09:24.317Z,22.70
2018-09-08T13:11:53.918Z,22.30
2018-09-08T13:14:23.849Z,22.10
2018-09-08T13:16:53.304Z,22.10
2018-09-08T13:19:22.573Z,21.70
2018-09-08T13:21:52.367Z,21.30
2018-09-08T13:24:21.629Z,21.00
2018-09-08T13:26:51.220Z,21.00
2018-09-08T13:29:20.700Z,21.10
2018-09-08T13:31:49.894Z,21.00
2018-09-08T13:34:19.221Z,20.60
2018-09-08T13:36:48.893Z,20.60
2018-09-08T13:39:20.277Z,20.70
2018-09-08T13:41:49.994Z,21.00
2018-09-08T13:44:19.857Z,21.00
2018-09-08T13:46:49.720Z,21.00
2018-09-08T13:49:19.530Z,20.90
2018-09-08T13:51:48.987Z,20.90
2018-09-08T13:54:18.734Z,21.00
2018-09-08T13:56:48.444Z,21.10
2018-09-08T13:59:18.192Z,21.30
2018-09-08T14:01:48.028Z,21.50
2018-09-08T14:04:18.339Z,21.60
2018-09-08T14:06:47.733Z,21.30
2018-09-08T14:09:17.119Z,21.40
2018-09-08T14:11:47.141Z,21.50
2018-09-08T14:14:16.364Z,21.50
2018-09-08T14:16:45.728Z,21.70
2018-09-08T14:19:14.987Z,21.60
2018-09-08T14:21:44.149Z,21.50
2018-09-08T14:24:14.168Z,21.30
2018-09-08T14:26:43.649Z,21.10
2018-09-08T14:29:13.225Z,21.00
2018-09-08T14:31:42.364Z,20.80
2018-09-08T14:34:11.785Z,20.80
2018-09-08T14:36:41.238Z,20.70
2018-09-08T14:39:10.754Z,20.60
2018-09-08T14:41:41.735Z,20.60
2018-09-08T14:44:11.895Z,20.60
2018-09-08T14:46:41.579Z,20.50
2018-09-08T14:49:11.509Z,20.40
2018-09-08T14:51:41.811Z,20.50
2018-09-08T14:54:11.274Z,20.50
2018-09-08T14:56:40.642Z,20.60
2018-09-08T14:59:10.859Z,20.50
2018-09-08T15:01:40.690Z,20.50
2018-09-08T15:04:10.348Z,20.70
2018-09-08T15:06:39.992Z,20.90
2018-09-08T15:09:09.594Z,20.90
2018-09-08T15:11:39.214Z,20.90
2018-09-08T15:14:08.912Z,20.70
2018-09-08T15:16:39.377Z,20.60
2018-09-08T15:19:09.010Z,20.40
2018-09-08T15:21:38.943Z,20.30
2018-09-08T15:24:08.349Z,20.20
2018-09-08T15:26:38.787Z,20.00
2018-09-08T15:29:08.121Z,19.90
2018-09-08T15:31:37.620Z,19.90
2018-09-08T15:34:07.302Z,19.90
2018-09-08T15:36:36.805Z,19.90
2018-09-08T15:39:08.113Z,19.90
2018-09-08T15:41:38.162Z,19.90
2018-09-08T15:44:08.633Z,20.00
2018-09-08T15:46:38.610Z,19.90
2018-09-08T15:49:08.012Z,19.80
2018-09-08T15:51:38.095Z,19.60
2018-09-08T15:54:08.452Z,19.50
2018-09-08T15:56:38.272Z,19.50
2018-09-08T15:59:08.308Z,19.50
2018-09-08T16:01:37.703Z,19.50
2018-09-08T16:04:07.377Z,19.50
2018-09-08T16:06:37.216Z,19.50
2018-09-08T16:09:07.781Z,19.40
2018-09-08T16:11:37.876Z,19.50
2018-09-08T16:14:07.744Z,19.60
2018-09-08T16:16:37.165Z,19.70
2018-09-08T16:19:06.744Z,19.70
2018-09-08T16:21:36.062Z,19.50
2018-09-08T16:24:05.641Z,19.40
2018-09-08T16:26:35.096Z,19.40
2018-09-08T16:29:04.454Z,19.30
2018-09-08T16:31:33.687Z,19.30
2018-09-08T16:34:03.130Z,19.20
2018-09-08T16:36:32.846Z,19.20
2018-09-08T16:39:02.390Z,19.20
2018-09-08T16:41:32.962Z,19.20
2018-09-08T16:44:03.044Z,19.30
2018-09-08T16:46:33.748Z,19.20
2018-09-08T16:49:03.348Z,19.10
2018-09-08T16:51:33.015Z,19.10
2018-09-08T16:54:02.676Z,19.00
2018-09-08T16:56:32.828Z,18.90
2018-09-08T16:59:01.419Z,18.80
2018-09-08T17:01:29.969Z,18.70
2018-09-08T17:03:59.318Z,18.60
2018-09-08T17:06:29.137Z,18.60
2018-09-08T17:08:58.798Z,18.60
2018-09-08T17:11:28.929Z,18.60
2018-09-08T17:13:58.387Z,18.50
2018-09-08T17:16:28.917Z,18.50
2018-09-08T17:18:58.586Z,18.50
2018-09-08T17:21:27.896Z,18.40
2018-09-08T17:23:57.605Z,18.40
2018-09-08T17:26:28.131Z,18.40
2018-09-08T17:28:57.969Z,18.30
2018-09-08T17:31:26.894Z,18.30
2018-09-08T17:33:56.465Z,18.30
2018-09-08T17:36:26.504Z,17.90
2018-09-08T17:38:55.089Z,18.20
2018-09-08T17:41:23.474Z,18.20
2018-09-08T17:43:53.176Z,18.20
2018-09-08T17:46:21.739Z,18.20
2018-09-08T17:48:51.281Z,18.20
2018-09-08T17:51:21.127Z,18.10
2018-09-08T17:53:50.524Z,18.10
2018-09-08T17:56:20.212Z,18.00
2018-09-08T17:58:50.037Z,18.00
2018-09-08T18:01:20.183Z,17.90
2018-09-08T18:03:49.707Z,17.80
2018-09-08T18:06:19.522Z,17.80
2018-09-08T18:08:47.961Z,17.80
2018-09-08T18:11:16.446Z,17.70
2018-09-08T18:13:45.349Z,17.70
2018-09-08T18:16:14.044Z,17.70
2018-09-08T18:18:44.020Z,17.60
2018-09-08T18:21:12.788Z,17.60
2018-09-08T18:23:42.918Z,17.60
2018-09-08T18:26:13.119Z,17.50
2018-09-08T18:28:41.747Z,17.50
2018-09-08T18:31:11.154Z,17.50
2018-09-08T18:33:40.429Z,17.40
2018-09-08T18:36:10.568Z,17.40
2018-09-08T18:38:39.864Z,17.30
2018-09-08T18:41:09.240Z,17.30
2018-09-08T18:43:38.532Z,17.30
2018-09-08T18:46:08.082Z,17.20
2018-09-08T18:48:37.507Z,17.20
2018-09-08T18:51:06.839Z,17.20
2018-09-08T18:53:36.110Z,17.20
2018-09-08T18:56:05.492Z,17.20
2018-09-08T18:58:35.193Z,17.20
2018-09-08T19:01:04.849Z,17.20
2018-09-08T19:03:34.558Z,17.20
2018-09-08T19:06:04.059Z,17.20
2018-09-08T19:08:38.597Z,17.10
2018-09-08T19:11:08.020Z,17.10
2018-09-08T19:13:37.513Z,17.20
2018-09-08T19:16:07.030Z,17.10
2018-09-08T19:18:36.579Z,17.10
2018-09-08T19:21:05.980Z,17.10
2018-09-08T19:23:35.479Z,17.10
2018-09-08T19:26:05.143Z,17.10
2018-09-08T19:28:34.696Z,17.00
2018-09-08T19:31:04.060Z,17.00
2018-09-08T19:33:33.667Z,17.00
2018-09-08T19:36:03.830Z,17.00
2018-09-08T19:38:34.065Z,17.00
2018-09-08T19:41:04.048Z,16.90
2018-09-08T19:43:33.852Z,16.90
2018-09-08T19:46:07.525Z,16.90
2018-09-08T19:48:37.417Z,16.90
2018-09-08T19:51:07.580Z,16.80
2018-09-08T19:53:42.913Z,16.80
2018-09-08T19:56:12.260Z,16.80
2018-09-08T19:58:47.416Z,16.80
2018-09-08T20:01:17.228Z,16.80
2018-09-08T20:03:47.936Z,16.80
2018-09-08T20:06:18.228Z,16.80
2018-09-08T20:08:48.437Z,16.80
2018-09-08T20:11:18.189Z,16.80
2018-09-08T20:13:47.614Z,16.70
2018-09-08T20:16:17.177Z,16.80
2018-09-08T20:18:46.319Z,16.70
2018-09-08T20:21:15.567Z,16.70
2018-09-08T20:23:44.924Z,16.70
2018-09-08T20:26:14.163Z,16.60
2018-09-08T20:28:43.526Z,16.70
2018-09-08T20:31:12.804Z,16.70
2018-09-08T20:33:42.311Z,16.70
2018-09-08T20:36:11.399Z,16.60
2018-09-08T20:38:40.972Z,16.60
2018-09-08T20:41:10.214Z,16.50
2018-09-08T20:56:38.790Z,16.50
2018-09-08T20:59:08.484Z,16.50
2018-09-08T21:01:38.153Z,15.90
2018-09-08T21:04:07.432Z,15.80
2018-09-08T21:06:36.961Z,15.80
2018-09-08T21:09:06.567Z,15.80
2018-09-08T21:11:35.968Z,15.80
2018-09-08T21:14:05.460Z,15.80
2018-09-08T21:16:34.732Z,15.80
2018-09-08T21:19:04.272Z,15.70
2018-09-08T21:21:33.727Z,15.80
2018-09-08T21:24:03.055Z,15.80
2018-09-08T21:26:32.316Z,15.80
2018-09-08T21:29:01.536Z,15.80
2018-09-08T21:31:30.809Z,15.90
2018-09-08T21:34:00.038Z,16.50
2018-09-08T21:36:29.319Z,15.90
2018-09-08T21:38:58.764Z,15.90
2018-09-08T21:41:28.779Z,15.90
2018-09-08T21:43:58.541Z,15.90
2018-09-08T21:46:28.269Z,15.90
2018-09-08T21:48:58.462Z,15.90
2018-09-08T21:51:28.256Z,15.90
2018-09-08T21:53:58.031Z,15.80
2018-09-08T21:56:27.679Z,15.80
2018-09-08T21:58:57.221Z,15.70
2018-09-08T22:01:27.606Z,15.60
2018-09-08T22:03:57.291Z,15.60
2018-09-08T22:06:26.913Z,15.60
2018-09-08T22:08:56.070Z,15.60
2018-09-08T22:11:25.223Z,15.60
2018-09-08T22:13:54.391Z,15.50
2018-09-08T22:16:23.637Z,15.50
2018-09-08T22:18:52.770Z,15.50
2018-09-08T22:21:21.877Z,15.60
2018-09-08T22:23:50.991Z,15.50
2018-09-08T22:26:19.438Z,15.50
2018-09-08T22:28:48.581Z,15.50
2018-09-08T22:31:17.730Z,15.50
2018-09-08T22:33:46.899Z,15.50
2018-09-08T22:36:16.043Z,15.50
2018-09-08T22:38:45.136Z,15.50
2018-09-08T22:41:14.351Z,15.50
2018-09-08T22:43:43.657Z,15.40
2018-09-08T22:46:13.275Z,15.40
2018-09-08T22:48:42.407Z,15.40
2018-09-08T22:51:11.624Z,15.40
2018-09-08T22:53:40.848Z,15.40
2018-09-08T22:56:10.144Z,15.40
2018-09-08T22:58:39.618Z,15.40
2018-09-08T23:01:08.839Z,15.30
2018-09-08T23:03:38.056Z,15.20
2018-09-08T23:06:07.641Z,15.30
2018-09-08T23:08:37.098Z,15.10
2018-09-08T23:11:06.725Z,15.00
2018-09-08T23:13:36.072Z,15.00
2018-09-08T23:16:05.256Z,15.00
2018-09-08T23:18:34.575Z,14.90
2018-09-08T23:21:03.999Z,14.90
2018-09-08T23:23:33.432Z,14.90
2018-09-08T23:26:02.819Z,15.00
2018-09-08T23:28:32.856Z,15.00
2018-09-08T23:31:02.104Z,15.00
2018-09-08T23:33:31.120Z,15.00
2018-09-08T23:36:00.343Z,15.00
2018-09-08T23:38:29.612Z,14.90
2018-09-08T23:40:59.127Z,15.00
2018-09-08T23:43:28.321Z,15.00
2018-09-08T23:45:57.656Z,15.00
2018-09-08T23:48:26.858Z,15.00
2018-09-08T23:50:56.464Z,15.00
2018-09-08T23:53:25.547Z,15.00
2018-09-08T23:55:54.839Z,15.00
2018-09-08T23:58:24.031Z,15.00
